Time;durP1;ratioP1;P1;durP2;ratioP2;P2;SDS_P1;SDS_P2;PMS_P1;PMS_P2;Temp;Humidity;BMP_temperature;BMP_pressure;BME280_temperature;BME280_humidity;BME280_pressure;Samples;Min_cycle;Max_cycle;Signal;HPM_P1;HPM_P2
2023/08/01 00:00:25;;;;;;;14.43;5.55;;;17.20;99.90;;;;;;6270224;22;20133;-76
2023/08/01 00:02:51;;;;;;;7.93;5.57;;;17.10;99.90;;;;;;6270191;22;20724;-76
2023/08/01 00:05:17;;;;;;;12.57;5.30;;;17.10;99.90;;;;;;6270272;22;20099;-76
2023/08/01 00:07:42;;;;;;;14.13;5.97;;;17.20;99.90;;;;;;6272691;22;20027;-76
2023/08/01 00:10:08;;;;;;;9.23;5.70;;;17.10;99.90;;;;;;6270148;22;20051;-76
2023/08/01 00:12:34;;;;;;;8.82;6.22;;;17.10;99.90;;;;;;6270031;22;20023;-76
2023/08/01 00:15:00;;;;;;;13.73;6.55;;;17.10;99.90;;;;;;6269923;22;20035;-77
2023/08/01 00:17:25;;;;;;;8.05;5.45;;;17.10;99.90;;;;;;6244969;22;20360;-76
2023/08/01 00:19:51;;;;;;;9.98;5.03;;;17.10;99.90;;;;;;6270185;22;20351;-76
2023/08/01 00:22:17;;;;;;;8.50;5.35;;;17.10;99.90;;;;;;6269976;22;20030;-76
2023/08/01 00:24:43;;;;;;;11.80;5.97;;;17.10;99.90;;;;;;6270003;22;20030;-77
2023/08/01 00:27:10;;;;;;;10.77;6.13;;;17.10;99.90;;;;;;6270045;22;20560;-76
2023/08/01 00:29:36;;;;;;;10.98;6.18;;;17.10;99.90;;;;;;6269704;22;20084;-76
2023/08/01 00:32:02;;;;;;;10.57;6.47;;;17.10;99.90;;;;;;6271852;22;20027;-76
2023/08/01 00:34:28;;;;;;;9.48;5.63;;;17.10;99.90;;;;;;6244722;22;20019;-76
2023/08/01 00:36:53;;;;;;;9.85;5.18;;;17.00;99.90;;;;;;6244845;22;20030;-76
2023/08/01 00:39:19;;;;;;;16.63;5.93;;;17.10;99.90;;;;;;6244923;22;20467;-77
2023/08/01 00:41:45;;;;;;;14.90;6.88;;;17.10;99.90;;;;;;6244597;22;20087;-77
2023/08/01 00:44:10;;;;;;;10.30;5.68;;;17.10;99.90;;;;;;6272223;22;20123;-77
2023/08/01 00:46:36;;;;;;;10.98;6.43;;;17.10;99.90;;;;;;6245099;22;20047;-77
2023/08/01 00:49:03;;;;;;;6.90;5.50;;;17.00;99.90;;;;;;6244778;22;20443;-77
2023/08/01 00:51:31;;;;;;;10.23;6.18;;;17.10;99.90;;;;;;6244255;22;20029;-77
2023/08/01 00:53:58;;;;;;;11.38;5.88;;;17.00;99.90;;;;;;6272133;22;20028;-77
2023/08/01 00:56:24;;;;;;;7.63;5.32;;;17.00;99.90;;;;;;6244356;22;20542;-76
2023/08/01 00:58:50;;;;;;;15.07;6.20;;;17.00;99.90;;;;;;6271692;22;20094;-77
2023/08/01 01:01:15;;;;;;;11.25;6.15;;;17.00;99.90;;;;;;6272249;22;20016;-77
2023/08/01 01:03:41;;;;;;;9.30;5.15;;;17.00;99.90;;;;;;6245063;22;20034;-77
2023/08/01 01:06:19;;;;;;;10.00;5.15;;;17.00;99.90;;;;;;6244963;22;20023;-77
2023/08/01 01:08:45;;;;;;;12.38;5.50;;;17.00;99.90;;;;;;6244753;22;20056;-75
2023/08/01 01:11:11;;;;;;;11.05;5.05;;;17.00;99.90;;;;;;6244876;22;20327;-76
2023/08/01 01:13:36;;;;;;;11.80;5.20;;;17.00;99.90;;;;;;6244196;22;20028;-77
2023/08/01 01:16:03;;;;;;;6.07;4.97;;;17.00;99.90;;;;;;6272355;22;20023;-77
2023/08/01 01:18:28;;;;;;;8.40;4.90;;;17.00;99.90;;;;;;6272128;22;20094;-76
2023/08/01 01:20:54;;;;;;;14.57;5.10;;;17.00;99.90;;;;;;6272048;22;20497;-76
2023/08/01 01:23:21;;;;;;;10.50;5.32;;;17.00;99.90;;;;;;6244422;22;20080;-76
2023/08/01 01:25:52;;;;;;;10.13;4.70;;;17.00;99.90;;;;;;6243973;22;20049;-76
2023/08/01 01:28:20;;;;;;;13.55;5.00;;;17.00;99.90;;;;;;6243875;22;20164;-77
2023/08/01 01:30:47;;;;;;;10.38;5.25;;;17.00;99.90;;;;;;6271510;22;20023;-77
2023/08/01 01:33:14;;;;;;;8.18;4.40;;;16.90;99.90;;;;;;6244330;22;20026;-77
2023/08/01 01:35:40;;;;;;;13.40;4.85;;;16.90;99.90;;;;;;6271465;22;20024;-76
2023/08/01 01:38:06;;;;;;;7.00;4.30;;;16.90;99.90;;;;;;6271511;22;20024;-76
2023/08/01 01:40:33;;;;;;;8.98;4.65;;;16.90;99.90;;;;;;6271797;22;20408;-77
2023/08/01 01:42:59;;;;;;;10.10;4.38;;;16.90;99.90;;;;;;6243958;22;20019;-77
2023/08/01 01:45:25;;;;;;;7.85;5.00;;;16.90;99.90;;;;;;6244037;22;20039;-77
2023/08/01 01:47:51;;;;;;;9.65;4.75;;;16.90;99.90;;;;;;6244073;22;20019;-77
2023/08/01 01:50:17;;;;;;;6.82;5.13;;;16.90;99.90;;;;;;6244387;22;20442;-77
2023/08/01 01:52:44;;;;;;;9.43;5.05;;;16.90;99.90;;;;;;6243706;22;20028;-76
2023/08/01 01:55:09;;;;;;;11.52;5.25;;;16.90;99.90;;;;;;6243923;22;20027;-76
2023/08/01 01:57:36;;;;;;;8.80;4.43;;;16.90;99.90;;;;;;6243840;22;20022;-75
2023/08/01 02:00:10;;;;;;;14.48;4.88;;;16.90;99.90;;;;;;6271958;22;20110;-76
2023/08/01 02:02:36;;;;;;;13.55;4.93;;;16.90;99.90;;;;;;6244411;22;20016;-76
2023/08/01 02:05:03;;;;;;;9.43;4.50;;;16.90;99.90;;;;;;6246518;22;20023;-75
2023/08/01 02:07:29;;;;;;;7.40;4.75;;;16.90;99.90;;;;;;6274241;22;20397;-75
2023/08/01 02:09:55;;;;;;;8.73;4.00;;;16.80;99.90;;;;;;6246591;22;20035;-75
2023/08/01 02:12:21;;;;;;;11.68;4.28;;;16.80;99.90;;;;;;6246306;22;20023;-76
2023/08/01 02:14:46;;;;;;;10.02;4.18;;;16.80;99.90;;;;;;6246137;22;20082;-76
2023/08/01 02:17:12;;;;;;;10.25;4.97;;;16.80;99.90;;;;;;6273850;22;20031;-76
2023/08/01 02:19:38;;;;;;;9.43;4.30;;;16.80;99.90;;;;;;6246047;22;20030;-76
2023/08/01 02:22:04;;;;;;;11.27;4.25;;;16.80;99.90;;;;;;6273712;22;20098;-76
2023/08/01 02:24:30;;;;;;;11.65;5.00;;;16.80;99.90;;;;;;6245803;22;20019;-76
2023/08/01 02:26:55;;;;;;;8.52;4.57;;;16.70;99.90;;;;;;6245671;22;20031;-75
2023/08/01 02:29:21;;;;;;;10.43;4.53;;;16.70;99.90;;;;;;6273374;22;20020;-75
2023/08/01 02:31:47;;;;;;;14.35;4.97;;;16.70;99.90;;;;;;6249838;22;20023;-76
2023/08/01 02:34:12;;;;;;;10.90;4.72;;;16.70;99.90;;;;;;6215318;23;20035;-75
2023/08/01 02:36:40;;;;;;;8.98;4.75;;;16.70;99.90;;;;;;6215298;23;20103;-75
2023/08/01 02:39:06;;;;;;;8.00;4.38;;;16.70;99.90;;;;;;6214589;23;20300;-76
2023/08/01 02:41:32;;;;;;;12.70;4.68;;;16.70;99.90;;;;;;6242792;23;20308;-76
2023/08/01 02:43:58;;;;;;;13.38;4.40;;;16.70;99.90;;;;;;6243067;23;20352;-76
2023/08/01 02:46:24;;;;;;;9.00;4.68;;;16.70;99.90;;;;;;6242971;23;20027;-75
2023/08/01 02:48:49;;;;;;;8.20;4.50;;;16.70;99.90;;;;;;6242636;23;20024;-75
2023/08/01 02:51:15;;;;;;;12.27;4.30;;;16.70;99.90;;;;;;6215390;23;20024;-76
2023/08/01 02:53:41;;;;;;;10.93;4.50;;;16.70;99.90;;;;;;6242407;23;20016;-76
2023/08/01 02:56:09;;;;;;;11.48;4.22;;;16.70;99.90;;;;;;6215542;23;20020;-76
2023/08/01 02:58:36;;;;;;;9.48;4.13;;;16.70;99.90;;;;;;6242822;23;20016;-76
2023/08/01 03:01:07;;;;;;;11.60;4.20;;;16.60;99.90;;;;;;6243031;23;20313;-76
2023/08/01 03:03:32;;;;;;;8.00;3.70;;;16.60;99.90;;;;;;6242577;23;20016;-76
2023/08/01 03:05:59;;;;;;;8.98;4.38;;;16.60;99.90;;;;;;6215253;23;20129;-75
2023/08/01 03:08:25;;;;;;;9.95;4.00;;;16.50;99.90;;;;;;6215023;23;20024;-76
2023/08/01 03:10:51;;;;;;;7.40;4.07;;;16.50;99.90;;;;;;6215411;23;20016;-76
2023/08/01 03:13:16;;;;;;;12.35;3.88;;;16.50;99.90;;;;;;6215298;23;20389;-76
2023/08/01 03:15:42;;;;;;;7.93;3.75;;;16.50;99.90;;;;;;6215101;23;20029;-75
2023/08/01 03:18:08;;;;;;;7.85;3.70;;;16.50;99.90;;;;;;6214774;23;20047;-75
2023/08/01 03:20:33;;;;;;;8.40;4.05;;;16.50;99.90;;;;;;6215029;23;20119;-76
2023/08/01 03:22:59;;;;;;;9.05;4.30;;;16.50;99.90;;;;;;6214511;23;20032;-76
2023/08/01 03:25:25;;;;;;;11.25;3.58;;;16.50;99.90;;;;;;6214446;23;20019;-76
2023/08/01 03:27:51;;;;;;;12.77;4.43;;;16.40;99.90;;;;;;6241996;23;20055;-76
2023/08/01 03:30:16;;;;;;;9.43;4.10;;;16.40;99.90;;;;;;6218929;22;20019;-76
2023/08/01 03:32:42;;;;;;;9.82;4.07;;;16.50;99.90;;;;;;6273128;22;20014;-75
2023/08/01 03:35:08;;;;;;;8.23;4.03;;;16.40;99.90;;;;;;6245270;22;20663;-76
2023/08/01 03:37:34;;;;;;;9.32;4.00;;;16.40;99.90;;;;;;6272461;22;20016;-76
2023/08/01 03:39:59;;;;;;;12.27;4.47;;;16.40;99.90;;;;;;6272993;22;20095;-77
2023/08/01 03:42:25;;;;;;;7.65;3.22;;;16.30;99.90;;;;;;6245667;22;20373;-77
2023/08/01 03:44:51;;;;;;;10.93;4.10;;;16.30;99.90;;;;;;6273379;22;20019;-77
2023/08/01 03:47:16;;;;;;;10.20;3.92;;;16.30;99.90;;;;;;6245224;22;20355;-77
2023/08/01 03:49:42;;;;;;;11.32;4.10;;;16.30;99.90;;;;;;6245392;22;20019;-77
2023/08/01 03:52:08;;;;;;;9.98;3.78;;;16.30;99.90;;;;;;6245391;22;20023;-77
2023/08/01 03:54:34;;;;;;;12.68;4.13;;;16.30;99.90;;;;;;6272630;22;20038;-77
2023/08/01 03:56:59;;;;;;;9.25;3.90;;;16.40;99.90;;;;;;6272963;22;20024;-77
2023/08/01 03:59:26;;;;;;;11.13;4.40;;;16.40;99.90;;;;;;6244502;22;20019;-76
2023/08/01 04:01:52;;;;;;;12.52;4.53;;;16.40;99.90;;;;;;6271744;22;20022;-71
2023/08/01 04:04:17;;;;;;;5.82;3.47;;;16.30;99.90;;;;;;6271852;22;20023;-77
2023/08/01 04:06:43;;;;;;;4.20;2.45;;;16.30;99.90;;;;;;6272446;22;20081;-79
2023/08/01 04:09:09;;;;;;;9.02;3.17;;;16.30;99.90;;;;;;6272088;22;20059;-76
2023/08/01 04:11:34;;;;;;;7.18;3.00;;;16.30;99.90;;;;;;6271335;22;20050;-74
2023/08/01 04:14:00;;;;;;;3.05;2.50;;;16.30;99.90;;;;;;6244661;22;20024;-74
2023/08/01 04:16:26;;;;;;;1.80;1.48;;;16.30;99.90;;;;;;6243868;22;20398;-74
2023/08/01 04:18:51;;;;;;;6.88;2.35;;;16.20;99.90;;;;;;6243765;22;20020;-74
2023/08/01 04:21:18;;;;;;;3.80;1.90;;;16.20;99.90;;;;;;6243226;22;20082;-75
2023/08/01 04:23:44;;;;;;;2.83;1.55;;;16.10;99.90;;;;;;6243525;22;20434;-75
2023/08/01 04:26:09;;;;;;;3.55;1.55;;;16.10;99.90;;;;;;6270734;22;20099;-75
2023/08/01 04:28:35;;;;;;;3.88;1.75;;;16.10;99.90;;;;;;6271558;22;20018;-75
2023/08/01 04:31:01;;;;;;;3.05;1.75;;;16.10;99.90;;;;;;6271358;22;20063;-76
2023/08/01 04:33:27;;;;;;;3.53;1.60;;;16.10;99.90;;;;;;6271593;22;20653;-76
2023/08/01 04:35:53;;;;;;;4.72;2.28;;;16.00;99.90;;;;;;6243911;22;20407;-76
2023/08/01 04:38:18;;;;;;;3.85;1.10;;;16.00;99.90;;;;;;6243977;22;20030;-77
2023/08/01 04:40:44;;;;;;;1.40;1.10;;;16.00;99.90;;;;;;6243821;22;20340;-76
2023/08/01 04:43:13;;;;;;;2.88;1.50;;;16.00;99.90;;;;;;6243858;22;20034;-76
2023/08/01 04:45:39;;;;;;;5.70;1.77;;;16.00;99.90;;;;;;6243591;22;20027;-75
2023/08/01 04:48:04;;;;;;;2.85;1.10;;;16.00;99.90;;;;;;6243833;22;20469;-76
2023/08/01 04:50:30;;;;;;;1.27;1.15;;;15.90;99.90;;;;;;6243145;22;20126;-76
2023/08/01 04:52:56;;;;;;;3.03;1.30;;;16.00;99.90;;;;;;6243747;22;20020;-76
2023/08/01 04:55:22;;;;;;;3.15;1.30;;;16.00;99.90;;;;;;6243867;22;20020;-76
2023/08/01 04:57:47;;;;;;;3.95;1.55;;;15.90;99.90;;;;;;6243571;22;20023;-75
2023/08/01 05:00:14;;;;;;;2.65;1.30;;;16.00;99.90;;;;;;6243303;22;20035;-75
2023/08/01 05:02:39;;;;;;;3.05;1.20;;;15.90;99.90;;;;;;6243818;22;20023;-75
2023/08/01 05:05:05;;;;;;;1.60;1.38;;;15.90;99.90;;;;;;6243220;22;20030;-75
2023/08/01 05:07:31;;;;;;;2.80;1.30;;;15.90;99.90;;;;;;6243401;22;20036;-75
2023/08/01 05:09:57;;;;;;;3.45;1.55;;;16.00;99.90;;;;;;6243764;22;20016;-76
2023/08/01 05:12:22;;;;;;;4.22;1.80;;;16.00;99.90;;;;;;6271411;22;20325;-75
2023/08/01 05:14:48;;;;;;;5.68;1.77;;;16.00;99.90;;;;;;6243208;22;20058;-76
2023/08/01 05:17:14;;;;;;;4.15;1.75;;;16.00;99.90;;;;;;6243308;22;20046;-76
2023/08/01 05:19:40;;;;;;;2.10;1.38;;;16.00;99.90;;;;;;6243536;22;20016;-76
2023/08/01 05:22:05;;;;;;;3.58;2.00;;;16.10;99.90;;;;;;6243954;22;20031;-76
2023/08/01 05:24:31;;;;;;;3.75;1.80;;;16.10;99.90;;;;;;6243897;22;20027;-76
2023/08/01 05:26:57;;;;;;;4.20;1.60;;;16.10;99.90;;;;;;6243506;22;20034;-75
2023/08/01 05:29:22;;;;;;;3.85;1.45;;;16.10;99.90;;;;;;6244044;22;20034;-76
2023/08/01 05:31:49;;;;;;;4.72;1.50;;;16.10;99.90;;;;;;6261994;22;20028;-76
2023/08/01 05:34:15;;;;;;;3.33;1.65;;;16.10;99.90;;;;;;6268925;22;20089;-76
2023/08/01 05:36:41;;;;;;;4.13;1.50;;;16.10;99.90;;;;;;6271238;22;20016;-75
2023/08/01 05:39:07;;;;;;;5.43;1.92;;;16.20;99.90;;;;;;6269415;22;20082;-76
2023/08/01 05:41:33;;;;;;;2.38;1.50;;;16.20;99.90;;;;;;6269414;22;20019;-76
2023/08/01 05:43:59;;;;;;;2.50;1.85;;;16.20;99.90;;;;;;6269060;22;20104;-75
2023/08/01 05:46:24;;;;;;;3.03;1.77;;;16.10;99.90;;;;;;6269408;22;20031;-77
2023/08/01 05:48:50;;;;;;;5.13;2.35;;;16.20;99.90;;;;;;6268726;22;20016;-76
2023/08/01 05:51:16;;;;;;;4.75;1.92;;;16.10;99.90;;;;;;6269401;22;20024;-78
2023/08/01 05:53:41;;;;;;;4.75;2.13;;;16.10;99.90;;;;;;6269035;22;20363;-78
2023/08/01 05:56:07;;;;;;;4.97;2.05;;;16.20;99.90;;;;;;6271437;22;20045;-78
2023/08/01 05:58:33;;;;;;;4.25;1.90;;;16.20;99.90;;;;;;6269652;22;20024;-79
2023/08/01 06:00:58;;;;;;;4.47;2.15;;;16.20;99.90;;;;;;6269527;22;20031;-78
2023/08/01 06:03:24;;;;;;;2.95;1.70;;;16.10;99.90;;;;;;6271450;22;20115;-78
2023/08/01 06:05:50;;;;;;;3.08;1.80;;;16.20;99.90;;;;;;6273438;22;20039;-78
2023/08/01 06:08:16;;;;;;;3.80;1.67;;;16.10;99.90;;;;;;6277976;22;20019;-78
2023/08/01 06:10:42;;;;;;;6.47;1.60;;;16.10;99.90;;;;;;6276097;22;20351;-78
2023/08/01 06:13:08;;;;;;;4.85;1.80;;;16.10;99.90;;;;;;6276098;22;20084;-78
2023/08/01 06:15:34;;;;;;;3.47;1.48;;;16.10;99.90;;;;;;6277261;22;20024;-77
2023/08/01 06:18:00;;;;;;;2.05;1.02;;;16.10;99.90;;;;;;6275050;22;20439;-77
2023/08/01 06:20:26;;;;;;;3.88;1.40;;;16.10;99.90;;;;;;6275090;22;20348;-77
2023/08/01 06:22:51;;;;;;;3.83;1.70;;;16.10;99.90;;;;;;6274998;22;20030;-78
2023/08/01 06:25:17;;;;;;;3.83;1.40;;;16.10;99.90;;;;;;6277523;22;20020;-77
2023/08/01 06:27:43;;;;;;;4.45;1.90;;;16.10;99.90;;;;;;6273328;22;20024;-78
2023/08/01 06:30:09;;;;;;;4.03;1.60;;;16.10;99.90;;;;;;6269080;22;20027;-78
2023/08/01 06:32:35;;;;;;;2.97;1.70;;;16.10;99.90;;;;;;6271041;22;20055;-78
2023/08/01 06:35:01;;;;;;;4.35;1.70;;;16.10;99.90;;;;;;6243905;22;20085;-79
2023/08/01 06:37:27;;;;;;;3.63;1.90;;;16.10;99.90;;;;;;6271788;22;20034;-78
2023/08/01 06:39:53;;;;;;;3.33;1.95;;;16.20;99.90;;;;;;6244241;22;20027;-79
2023/08/01 06:42:19;;;;;;;6.68;2.17;;;16.20;99.90;;;;;;6218550;22;20031;-76
2023/08/01 06:44:45;;;;;;;6.22;2.28;;;16.30;99.90;;;;;;6271389;22;20093;-77
2023/08/01 06:47:11;;;;;;;4.85;2.00;;;16.40;99.90;;;;;;6243431;22;20082;-75
2023/08/01 06:49:37;;;;;;;5.03;2.70;;;16.50;99.90;;;;;;6243827;22;20447;-75
2023/08/01 06:52:03;;;;;;;6.68;3.10;;;16.60;99.90;;;;;;6244967;22;20105;-76
2023/08/01 06:54:29;;;;;;;5.07;2.67;;;16.60;99.90;;;;;;6250485;22;20027;-76
2023/08/01 06:56:54;;;;;;;5.28;2.78;;;16.60;99.90;;;;;;6251596;22;20054;-76
2023/08/01 06:59:20;;;;;;;9.80;3.03;;;16.70;99.90;;;;;;6278968;22;20023;-76
2023/08/01 07:01:46;;;;;;;3.25;2.03;;;16.70;99.90;;;;;;6250996;22;20027;-75
2023/08/01 07:04:11;;;;;;;3.65;2.08;;;16.80;99.90;;;;;;6250522;22;20031;-76
2023/08/01 07:06:37;;;;;;;6.80;3.45;;;16.80;99.90;;;;;;6251597;22;20610;-77
2023/08/01 07:09:03;;;;;;;4.68;1.88;;;16.90;99.90;;;;;;6251273;22;20103;-76
2023/08/01 07:11:29;;;;;;;6.68;2.60;;;16.90;99.90;;;;;;6278979;22;20073;-76
2023/08/01 07:13:54;;;;;;;7.10;2.30;;;16.90;99.90;;;;;;6251113;22;20077;-75
2023/08/01 07:16:20;;;;;;;4.88;2.08;;;16.90;99.90;;;;;;6251183;22;20015;-75
2023/08/01 07:18:48;;;;;;;5.53;2.38;;;16.90;99.90;;;;;;6250845;22;20113;-75
2023/08/01 07:21:14;;;;;;;4.47;2.03;;;16.90;99.90;;;;;;6251573;22;20445;-76
2023/08/01 07:23:40;;;;;;;5.90;3.08;;;16.90;99.90;;;;;;6277704;22;20031;-78
2023/08/01 07:26:06;;;;;;;5.95;2.60;;;16.90;99.90;;;;;;6249914;22;20022;-78
2023/08/01 07:28:32;;;;;;;6.03;2.28;;;17.00;99.90;;;;;;6251316;22;20343;-77
2023/08/01 07:31:04;;;;;;;6.78;2.20;;;17.00;99.90;;;;;;6252027;22;20036;-79
2023/08/01 07:33:30;;;;;;;;;;;17.10;99.90;;;;;;6252163;22;20023;-79
2023/08/01 07:35:56;;;;;;;3.63;1.88;;;17.10;99.90;;;;;;6251010;22;20319;-78
2023/08/01 07:38:22;;;;;;;6.68;2.30;;;17.20;99.90;;;;;;6278445;22;20016;-77
2023/08/01 07:40:47;;;;;;;7.57;2.13;;;17.30;99.90;;;;;;6278115;22;20457;-77
2023/08/01 07:43:13;;;;;;;4.88;2.10;;;17.30;99.90;;;;;;6251699;22;20016;-77
2023/08/01 07:45:39;;;;;;;6.07;2.33;;;17.30;99.90;;;;;;6251267;22;20031;-78
2023/08/01 07:48:05;;;;;;;4.70;1.90;;;17.30;99.90;;;;;;6225165;22;20023;-75
2023/08/01 07:50:31;;;;;;;3.53;1.70;;;17.40;99.90;;;;;;6249439;22;20019;-77
2023/08/01 07:52:57;;;;;;;8.40;2.33;;;17.30;99.90;;;;;;6251838;22;20026;-76
2023/08/01 07:55:23;;;;;;;7.25;2.30;;;17.20;99.90;;;;;;6251327;22;20027;-76
2023/08/01 07:57:48;;;;;;;5.68;2.45;;;17.20;99.90;;;;;;6279337;22;20026;-79
2023/08/01 08:00:15;;;;;;;6.60;2.03;;;17.20;99.90;;;;;;6278827;22;20023;-79
2023/08/01 08:02:44;;;;;;;4.60;2.22;;;17.10;99.90;;;;;;6250999;22;20019;-79
2023/08/01 08:05:11;;;;;;;5.88;2.08;;;17.10;99.90;;;;;;6251076;22;20110;-80
2023/08/01 08:07:37;;;;;;;4.97;1.90;;;17.10;99.90;;;;;;6251410;22;20023;-79
2023/08/01 08:10:04;;;;;;;3.20;1.98;;;17.10;99.90;;;;;;6277899;22;20046;-79
2023/08/01 08:12:29;;;;;;;7.05;2.22;;;17.10;99.90;;;;;;6278544;22;20036;-80
2023/08/01 08:14:55;;;;;;;6.03;2.00;;;17.10;99.90;;;;;;6251760;22;20484;-81
2023/08/01 08:17:21;;;;;;;4.10;1.75;;;17.10;99.90;;;;;;6250236;22;20019;-81
2023/08/01 08:19:46;;;;;;;4.68;2.30;;;17.10;99.90;;;;;;6251895;22;20462;-84
2023/08/01 08:22:12;;;;;;;5.00;1.75;;;17.10;99.90;;;;;;6251101;22;20068;-83
2023/08/01 08:24:38;;;;;;;5.03;1.92;;;17.10;99.90;;;;;;6254632;22;20035;-83
2023/08/01 08:27:04;;;;;;;3.80;1.83;;;17.00;99.90;;;;;;6251560;22;20196;-83
2023/08/01 08:29:31;;;;;;;5.43;1.98;;;16.90;99.90;;;;;;6252394;22;20451;-85
2023/08/01 08:31:57;;;;;;;3.88;1.88;;;17.00;99.90;;;;;;6271850;22;20023;-83
2023/08/01 08:34:22;;;;;;;5.57;1.80;;;16.90;99.90;;;;;;6278511;22;20054;-82
2023/08/01 08:36:50;;;;;;;11.55;2.17;;;16.90;99.90;;;;;;6279390;22;20019;-81
2023/08/01 08:39:16;;;;;;;5.93;2.00;;;16.90;99.90;;;;;;6280194;22;20080;-78
2023/08/01 08:41:50;;;;;;;5.32;1.98;;;16.90;99.90;;;;;;6277777;22;20020;-78
2023/08/01 08:44:17;;;;;;;5.95;2.22;;;16.90;99.90;;;;;;6277373;22;20051;-76
2023/08/01 08:46:44;;;;;;;4.68;2.50;;;16.90;99.90;;;;;;6277685;22;20012;-81
2023/08/01 08:49:11;;;;;;;5.18;1.88;;;16.90;99.90;;;;;;6276265;22;20028;-78
2023/08/01 08:51:38;;;;;;;6.93;2.33;;;16.90;99.90;;;;;;6278844;22;20016;-82
2023/08/01 08:54:05;;;;;;;5.82;2.20;;;16.90;99.90;;;;;;6276627;22;20043;-79
2023/08/01 08:56:31;;;;;;;4.32;2.03;;;16.90;99.90;;;;;;6278768;22;20027;-80
2023/08/01 08:58:58;;;;;;;11.55;2.97;;;16.90;99.90;;;;;;6276860;22;20046;-81
2023/08/01 09:01:24;;;;;;;6.70;2.53;;;17.00;99.90;;;;;;6277381;22;20225;-81
2023/08/01 09:03:50;;;;;;;6.47;2.35;;;17.00;99.90;;;;;;6276297;22;20022;-80
2023/08/01 09:06:18;;;;;;;6.30;2.90;;;17.00;99.90;;;;;;6278946;22;20012;-80
2023/08/01 09:08:51;;;;;;;5.20;2.33;;;17.10;99.90;;;;;;6276184;22;20092;-80
2023/08/01 09:11:18;;;;;;;9.13;2.75;;;17.10;99.90;;;;;;6277588;22;20042;-80
2023/08/01 09:13:44;;;;;;;5.88;2.67;;;17.10;99.90;;;;;;6276499;22;20030;-81
2023/08/01 09:16:11;;;;;;;9.85;2.70;;;17.10;99.90;;;;;;6276282;22;20100;-80
2023/08/01 09:18:51;;;;;;;11.07;2.60;;;17.20;99.90;;;;;;6276442;22;20024;-79
2023/08/01 09:21:21;;;;;;;5.47;2.17;;;17.20;99.90;;;;;;6276381;22;20047;-80
2023/08/01 09:23:47;;;;;;;11.60;2.88;;;17.20;99.90;;;;;;6277121;22;20420;-81
2023/08/01 09:26:17;;;;;;;6.18;2.45;;;17.20;99.90;;;;;;6273207;22;20040;-85
2023/08/01 09:28:42;;;;;;;7.80;2.65;;;17.20;99.90;;;;;;6270152;22;20016;-77
2023/08/01 09:31:10;;;;;;;6.40;1.90;;;17.10;99.90;;;;;;6267975;22;20089;-75
2023/08/01 09:33:42;;;;;;;3.90;1.63;;;17.10;99.90;;;;;;6268485;22;20318;-76
2023/08/01 09:36:09;;;;;;;6.38;2.00;;;17.10;99.90;;;;;;6270476;22;20019;-76
2023/08/01 09:38:36;;;;;;;7.40;1.90;;;17.10;99.90;;;;;;6270823;22;20019;-76
2023/08/01 09:41:03;;;;;;;3.10;1.83;;;17.10;99.90;;;;;;6270772;22;20069;-76
2023/08/01 09:43:36;;;;;;;6.65;1.85;;;17.10;99.90;;;;;;6268857;22;20367;-75
2023/08/01 09:46:03;;;;;;;3.17;2.00;;;16.90;99.90;;;;;;6268996;22;20451;-75
2023/08/01 09:48:30;;;;;;;5.97;1.92;;;16.90;99.90;;;;;;6242868;22;20019;-76
2023/08/01 09:51:13;;;;;;;4.53;1.90;;;16.90;99.90;;;;;;6268459;22;20463;-76
2023/08/01 09:53:55;;;;;;;6.65;2.00;;;16.80;99.90;;;;;;6268677;22;20038;-76
2023/08/01 09:56:26;;;;;;;5.10;2.08;;;16.80;99.90;;;;;;6268978;22;20027;-77
2023/08/01 09:58:54;;;;;;;2.63;1.67;;;16.80;99.90;;;;;;6269038;22;20153;-78
2023/08/01 10:01:24;;;;;;;8.25;2.63;;;16.70;99.90;;;;;;6269370;22;20019;-78
2023/08/01 10:03:53;;;;;;;5.35;2.25;;;16.80;99.90;;;;;;6271092;22;20007;-78
2023/08/01 10:06:21;;;;;;;5.57;2.20;;;16.80;99.90;;;;;;6271367;22;20030;-78
2023/08/01 10:08:49;;;;;;;6.35;1.90;;;16.80;99.90;;;;;;6271289;22;20020;-78
2023/08/01 10:11:16;;;;;;;7.28;2.28;;;16.90;99.90;;;;;;6271375;22;20301;-79
2023/08/01 10:13:43;;;;;;;7.20;2.22;;;16.90;99.90;;;;;;6269570;22;20420;-78
2023/08/01 10:16:10;;;;;;;3.15;2.00;;;17.00;99.90;;;;;;6269380;22;20363;-77
2023/08/01 10:18:40;;;;;;;6.38;2.70;;;17.00;99.90;;;;;;6269142;22;20115;-77
2023/08/01 10:21:16;;;;;;;7.15;2.60;;;17.10;99.90;;;;;;6269235;22;20359;-77
2023/08/01 10:23:43;;;;;;;8.05;2.58;;;17.20;99.90;;;;;;6268884;22;20028;-78
2023/08/01 10:26:11;;;;;;;8.13;2.20;;;17.20;99.90;;;;;;6271037;22;20055;-77
2023/08/01 10:28:39;;;;;;;5.35;2.35;;;17.20;99.90;;;;;;6270905;22;20030;-77
2023/08/01 10:31:15;;;;;;;6.07;2.50;;;17.30;99.90;;;;;;6270782;22;20031;-77
2023/08/01 10:33:43;;;;;;;8.95;2.80;;;17.30;99.90;;;;;;6271121;22;20091;-77
2023/08/01 10:36:19;;;;;;;8.73;3.80;;;17.50;99.90;;;;;;6271420;22;20086;-77
2023/08/01 10:38:53;;;;;;;7.53;2.10;;;17.50;99.90;;;;;;6273084;22;20020;-78
2023/08/01 10:41:20;;;;;;;6.32;2.15;;;17.50;99.90;;;;;;6271384;22;20024;-77
2023/08/01 10:43:46;;;;;;;5.65;2.20;;;17.50;99.90;;;;;;6271412;22;20039;-77
2023/08/01 10:46:11;;;;;;;5.20;1.65;;;17.50;99.90;;;;;;6271271;22;20027;-77
2023/08/01 10:48:57;;;;;;;3.90;1.90;;;17.50;99.90;;;;;;6273163;22;20451;-77
2023/08/01 10:51:23;;;;;;;3.85;1.90;;;17.50;99.90;;;;;;6270667;22;20027;-77
2023/08/01 10:53:48;;;;;;;6.65;1.77;;;17.60;99.90;;;;;;6270562;22;20028;-77
2023/08/01 10:56:20;;;;;;;6.93;2.03;;;17.70;99.90;;;;;;6271189;22;20023;-77
2023/08/01 10:58:47;;;;;;;4.43;1.60;;;17.80;99.90;;;;;;6245289;22;20019;-77
2023/08/01 11:01:13;;;;;;;6.35;2.15;;;17.90;99.90;;;;;;6270713;22;20020;-76
2023/08/01 11:03:40;;;;;;;7.63;2.00;;;17.90;99.90;;;;;;6270985;22;20107;-79
2023/08/01 11:06:05;;;;;;;9.80;1.90;;;17.90;99.90;;;;;;6273414;22;20335;-75
2023/08/01 11:08:35;;;;;;;5.50;1.98;;;17.90;99.90;;;;;;6271998;22;20126;-77
2023/08/01 11:11:01;;;;;;;5.20;1.85;;;17.90;99.90;;;;;;6270971;22;20050;-78
2023/08/01 11:13:27;;;;;;;4.95;1.70;;;17.80;99.90;;;;;;6270868;22;20035;-79
2023/08/01 11:15:56;;;;;;;3.05;1.60;;;17.70;99.90;;;;;;6245466;22;20027;-78
2023/08/01 11:18:22;;;;;;;5.47;1.70;;;17.60;99.90;;;;;;6271152;22;20649;-79
2023/08/01 11:20:47;;;;;;;3.78;1.67;;;17.60;99.90;;;;;;6270893;22;20025;-83
2023/08/01 11:23:13;;;;;;;4.85;1.38;;;17.60;99.90;;;;;;6269983;22;20421;-73
2023/08/01 11:25:45;;;;;;;3.45;1.67;;;17.50;99.90;;;;;;6267940;22;20028;-75
2023/08/01 11:28:15;;;;;;;5.38;1.30;;;17.40;99.90;;;;;;6269145;22;20054;-73
2023/08/01 11:30:42;;;;;;;5.47;1.52;;;17.40;99.90;;;;;;6269168;22;20024;-74
2023/08/01 11:33:24;;;;;;;4.43;1.60;;;17.40;99.90;;;;;;6243948;22;20028;-76
2023/08/01 11:35:59;;;;;;;7.13;1.70;;;17.40;99.90;;;;;;6243790;22;20058;-76
2023/08/01 11:38:29;;;;;;;5.78;1.75;;;17.50;99.90;;;;;;6244787;22;20073;-79
2023/08/01 11:40:56;;;;;;;8.23;2.33;;;17.60;99.90;;;;;;6272358;22;20098;-78
2023/08/01 11:43:22;;;;;;;9.77;2.13;;;17.60;99.90;;;;;;6244930;22;20486;-79
2023/08/01 11:45:54;;;;;;;5.30;1.77;;;17.70;99.90;;;;;;6244777;22;20020;-80
2023/08/01 11:48:21;;;;;;;10.67;2.20;;;17.80;99.90;;;;;;6244817;22;20033;-81
2023/08/01 11:50:46;;;;;;;5.05;1.45;;;17.80;99.90;;;;;;6245202;22;20054;-78
2023/08/01 11:53:22;;;;;;;4.32;1.40;;;17.80;99.90;;;;;;6243926;22;20390;-74
2023/08/01 11:55:49;;;;;;;3.58;1.33;;;17.80;99.90;;;;;;6243766;22;20054;-75
2023/08/01 11:58:15;;;;;;;6.68;1.55;;;17.70;99.90;;;;;;6271684;22;20020;-79
2023/08/01 12:00:41;;;;;;;10.02;2.30;;;17.80;99.90;;;;;;6272137;22;20462;-78
2023/08/01 12:03:13;;;;;;;10.80;1.98;;;17.80;99.90;;;;;;6244598;22;20020;-78
2023/08/01 12:05:41;;;;;;;5.60;1.63;;;17.90;99.90;;;;;;6244644;22;20101;-79
2023/08/01 12:08:13;;;;;;;4.70;1.48;;;18.00;99.90;;;;;;6244658;22;20655;-79
2023/08/01 12:10:41;;;;;;;3.85;1.58;;;18.20;99.90;;;;;;6244583;22;20055;-78
2023/08/01 14:10:44;;;;;;;2.78;1.10;;;19.30;99.90;;;;;;6262243;22;20018;-81
2023/08/01 14:13:10;;;;;;;3.90;1.52;;;19.20;99.90;;;;;;6274360;22;20024;-82
2023/08/01 14:15:35;;;;;;;7.30;1.67;;;19.20;99.90;;;;;;6245895;22;20016;-82
2023/08/01 14:18:01;;;;;;;5.53;1.30;;;19.10;99.90;;;;;;6274123;22;20034;-82
2023/08/01 14:20:27;;;;;;;3.17;1.00;;;19.10;99.90;;;;;;6274270;22;20027;-81
2023/08/01 14:22:52;;;;;;;4.53;1.13;;;19.10;99.90;;;;;;6246748;22;20696;-82
2023/08/01 14:25:18;;;;;;;3.90;1.27;;;19.10;99.90;;;;;;6273503;22;20031;-82
2023/08/01 14:27:44;;;;;;;3.33;1.40;;;19.10;99.90;;;;;;6274336;22;20016;-83
2023/08/01 14:30:10;;;;;;;3.20;1.00;;;19.20;99.90;;;;;;6246458;22;20054;-83
2023/08/01 14:32:37;;;;;;;4.00;1.10;;;19.20;99.90;;;;;;6246544;22;20106;-83
2023/08/01 14:35:03;;;;;;;3.33;1.10;;;19.20;99.90;;;;;;6246672;22;20024;-81
2023/08/01 14:37:29;;;;;;;4.80;1.35;;;19.20;99.90;;;;;;6274273;22;20030;-82
2023/08/01 14:39:55;;;;;;;4.65;1.50;;;19.30;99.90;;;;;;6273887;22;20016;-82